sensor_id;sensor_type;location;lat;lon;timestamp;temperature;humidity
65396;HTU21D;52004;45.136;39.010;2023-04-15T00:01:48;11.60;68.67
65396;HTU21D;52004;45.136;39.010;2023-04-15T00:04:14;11.60;68.68
65396;HTU21D;52004;45.136;39.010;2023-04-15T00:06:40;11.59;68.68
65396;HTU21D;52004;45.136;39.010;2023-04-15T00:09:06;11.58;68.68
65396;HTU21D;52004;45.136;39.010;2023-04-15T00:11:32;11.58;68.68
65396;HTU21D;52004;45.136;39.010;2023-04-15T00:13:58;11.57;68.64
65396;HTU21D;52004;45.136;39.010;2023-04-15T00:16:24;0.00;68.62
65396;HTU21D;52004;45.136;39.010;2023-04-15T00:18:51;11.52;68.68
65396;HTU21D;52004;45.136;39.010;2023-04-15T00:21:16;11.51;68.75
65396;HTU21D;52004;45.136;39.010;2023-04-15T00:23:42;11.53;68.74
65396;HTU21D;52004;45.136;39.010;2023-04-15T00:26:08;11.52;68.70
65396;HTU21D;52004;45.136;39.010;2023-04-15T00:28:34;11.51;68.65
65396;HTU21D;52004;45.136;39.010;2023-04-15T00:31:02;11.48;68.62
65396;HTU21D;52004;45.136;39.010;2023-04-15T00:33:27;11.46;68.60
65396;HTU21D;52004;45.136;39.010;2023-04-15T00:35:53;11.44;68.61
65396;HTU21D;52004;45.136;39.010;2023-04-15T00:38:19;11.41;68.68
65396;HTU21D;52004;45.136;39.010;2023-04-15T00:40:45;11.41;68.71
65396;HTU21D;52004;45.136;39.010;2023-04-15T00:43:11;11.41;68.75
65396;HTU21D;52004;45.136;39.010;2023-04-15T00:45:37;11.41;68.73
65396;HTU21D;52004;45.136;39.010;2023-04-15T00:48:03;11.40;68.68
65396;HTU21D;52004;45.136;39.010;2023-04-15T00:50:30;11.39;68.67
65396;HTU21D;52004;45.136;39.010;2023-04-15T00:52:55;11.38;68.70
65396;HTU21D;52004;45.136;39.010;2023-04-15T00:55:22;11.36;68.73
65396;HTU21D;52004;45.136;39.010;2023-04-15T00:57:48;11.34;68.72
65396;HTU21D;52004;45.136;39.010;2023-04-15T01:00:13;11.33;68.78
65396;HTU21D;52004;45.136;39.010;2023-04-15T01:02:41;11.33;68.79
65396;HTU21D;52004;45.136;39.010;2023-04-15T01:05:07;11.32;68.76
65396;HTU21D;52004;45.136;39.010;2023-04-15T01:07:33;11.30;68.78
65396;HTU21D;52004;45.136;39.010;2023-04-15T01:09:58;11.31;68.76
65396;HTU21D;52004;45.136;39.010;2023-04-15T01:12:25;11.30;68.72
65396;HTU21D;52004;45.136;39.010;2023-04-15T01:14:54;11.28;68.77
65396;HTU21D;52004;45.136;39.010;2023-04-15T01:17:21;11.30;68.80
65396;HTU21D;52004;45.136;39.010;2023-04-15T01:19:47;11.30;68.79
65396;HTU21D;52004;45.136;39.010;2023-04-15T01:22:13;11.30;68.81
65396;HTU21D;52004;45.136;39.010;2023-04-15T01:24:39;11.31;68.81
65396;HTU21D;52004;45.136;39.010;2023-04-15T01:27:05;11.30;68.81
65396;HTU21D;52004;45.136;39.010;2023-04-15T01:29:34;11.30;68.78
65396;HTU21D;52004;45.136;39.010;2023-04-15T01:31:59;11.30;68.73
65396;HTU21D;52004;45.136;39.010;2023-04-15T01:34:44;11.27;68.73
65396;HTU21D;52004;45.136;39.010;2023-04-15T01:37:29;11.25;68.73
65396;HTU21D;52004;45.136;39.010;2023-04-15T01:39:55;11.24;68.74
65396;HTU21D;52004;45.136;39.010;2023-04-15T01:42:22;11.22;68.74
65396;HTU21D;52004;45.136;39.010;2023-04-15T01:44:49;0.00;68.75
65396;HTU21D;52004;45.136;39.010;2023-04-15T01:47:17;11.17;68.80
65396;HTU21D;52004;45.136;39.010;2023-04-15T01:49:44;11.15;68.78
65396;HTU21D;52004;45.136;39.010;2023-04-15T01:52:11;11.14;68.78
65396;HTU21D;52004;45.136;39.010;2023-04-15T01:54:40;11.13;68.75
65396;HTU21D;52004;45.136;39.010;2023-04-15T01:57:07;11.11;68.79
65396;HTU21D;52004;45.136;39.010;2023-04-15T01:59:35;11.08;68.79
65396;HTU21D;52004;45.136;39.010;2023-04-15T02:02:03;11.05;68.80
65396;HTU21D;52004;45.136;39.010;2023-04-15T02:04:30;11.03;68.83
65396;HTU21D;52004;45.136;39.010;2023-04-15T02:07:00;11.01;68.80
65396;HTU21D;52004;45.136;39.010;2023-04-15T02:09:27;10.99;68.83
65396;HTU21D;52004;45.136;39.010;2023-04-15T02:11:55;10.97;68.82
65396;HTU21D;52004;45.136;39.010;2023-04-15T02:14:23;10.95;68.79
65396;HTU21D;52004;45.136;39.010;2023-04-15T02:16:50;10.92;68.78
65396;HTU21D;52004;45.136;39.010;2023-04-15T02:19:17;10.89;68.71
65396;HTU21D;52004;45.136;39.010;2023-04-15T02:21:45;10.85;68.75
65396;HTU21D;52004;45.136;39.010;2023-04-15T02:24:12;10.81;68.76
65396;HTU21D;52004;45.136;39.010;2023-04-15T02:26:41;10.78;68.78
65396;HTU21D;52004;45.136;39.010;2023-04-15T02:29:08;10.73;68.78
65396;HTU21D;52004;45.136;39.010;2023-04-15T02:31:35;10.69;68.74
65396;HTU21D;52004;45.136;39.010;2023-04-15T02:34:05;10.66;68.70
65396;HTU21D;52004;45.136;39.010;2023-04-15T02:36:33;10.60;68.71
65396;HTU21D;52004;45.136;39.010;2023-04-15T02:39:01;10.56;68.75
65396;HTU21D;52004;45.136;39.010;2023-04-15T02:41:29;10.52;68.79
65396;HTU21D;52004;45.136;39.010;2023-04-15T02:43:57;10.49;68.81
65396;HTU21D;52004;45.136;39.010;2023-04-15T02:46:24;10.45;68.84
65396;HTU21D;52004;45.136;39.010;2023-04-15T02:48:53;10.42;68.85
65396;HTU21D;52004;45.136;39.010;2023-04-15T02:51:22;10.38;68.83
65396;HTU21D;52004;45.136;39.010;2023-04-15T02:53:50;10.34;68.85
65396;HTU21D;52004;45.136;39.010;2023-04-15T02:56:17;10.30;68.89
65396;HTU21D;52004;45.136;39.010;2023-04-15T02:58:45;10.27;68.92
65396;HTU21D;52004;45.136;39.010;2023-04-15T03:01:13;10.23;68.99
65396;HTU21D;52004;45.136;39.010;2023-04-15T03:03:41;10.22;69.09
65396;HTU21D;52004;45.136;39.010;2023-04-15T03:06:08;10.22;69.16
65396;HTU21D;52004;45.136;39.010;2023-04-15T03:08:35;10.21;69.17
65396;HTU21D;52004;45.136;39.010;2023-04-15T03:11:03;10.24;69.19
65396;HTU21D;52004;45.136;39.010;2023-04-15T03:13:30;10.25;69.18
65396;HTU21D;52004;45.136;39.010;2023-04-15T03:15:59;0.00;69.17
65396;HTU21D;52004;45.136;39.010;2023-04-15T03:18:27;10.27;69.21
65396;HTU21D;52004;45.136;39.010;2023-04-15T03:20:55;10.28;69.25
65396;HTU21D;52004;45.136;39.010;2023-04-15T03:23:23;10.30;69.28
65396;HTU21D;52004;45.136;39.010;2023-04-15T03:25:51;10.34;69.29
65396;HTU21D;52004;45.136;39.010;2023-04-15T03:28:22;10.37;69.33
65396;HTU21D;52004;45.136;39.010;2023-04-15T03:30:50;10.41;69.36
65396;HTU21D;52004;45.136;39.010;2023-04-15T03:33:17;10.46;69.36
65396;HTU21D;52004;45.136;39.010;2023-04-15T03:35:44;10.52;69.36
65396;HTU21D;52004;45.136;39.010;2023-04-15T03:38:11;10.55;69.36
65396;HTU21D;52004;45.136;39.010;2023-04-15T03:40:39;10.60;69.38
65396;HTU21D;52004;45.136;39.010;2023-04-15T03:43:07;10.65;69.40
65396;HTU21D;52004;45.136;39.010;2023-04-15T03:45:34;10.70;69.41
65396;HTU21D;52004;45.136;39.010;2023-04-15T03:48:01;10.75;69.43
65396;HTU21D;52004;45.136;39.010;2023-04-15T03:50:28;10.82;69.43
65396;HTU21D;52004;45.136;39.010;2023-04-15T03:52:55;10.86;69.45
65396;HTU21D;52004;45.136;39.010;2023-04-15T03:55:22;10.93;69.45
65396;HTU21D;52004;45.136;39.010;2023-04-15T03:57:49;10.97;69.45
65396;HTU21D;52004;45.136;39.010;2023-04-15T04:00:16;11.03;69.45
65396;HTU21D;52004;45.136;39.010;2023-04-15T04:02:44;11.10;69.42
65396;HTU21D;52004;45.136;39.010;2023-04-15T04:05:11;11.14;69.42
65396;HTU21D;52004;45.136;39.010;2023-04-15T04:07:38;11.18;69.42
65396;HTU21D;52004;45.136;39.010;2023-04-15T04:10:06;11.25;69.44
65396;HTU21D;52004;45.136;39.010;2023-04-15T04:12:33;11.31;69.45
65396;HTU21D;52004;45.136;39.010;2023-04-15T04:15:00;11.37;69.49
65396;HTU21D;52004;45.136;39.010;2023-04-15T04:17:27;11.47;69.57
65396;HTU21D;52004;45.136;39.010;2023-04-15T04:19:54;11.57;69.58
65396;HTU21D;52004;45.136;39.010;2023-04-15T04:22:22;11.68;69.55
65396;HTU21D;52004;45.136;39.010;2023-04-15T04:24:52;11.77;69.49
65396;HTU21D;52004;45.136;39.010;2023-04-15T04:27:19;11.85;69.45
65396;HTU21D;52004;45.136;39.010;2023-04-15T04:29:46;11.93;69.43
65396;HTU21D;52004;45.136;39.010;2023-04-15T04:32:15;12.04;69.48
65396;HTU21D;52004;45.136;39.010;2023-04-15T04:34:42;12.15;69.55
65396;HTU21D;52004;45.136;39.010;2023-04-15T04:37:09;12.25;69.51
65396;HTU21D;52004;45.136;39.010;2023-04-15T04:39:37;12.35;69.45
65396;HTU21D;52004;45.136;39.010;2023-04-15T04:42:04;12.43;69.44
65396;HTU21D;52004;45.136;39.010;2023-04-15T04:44:31;12.51;69.46
65396;HTU21D;52004;45.136;39.010;2023-04-15T04:46:58;12.61;69.36
65396;HTU21D;52004;45.136;39.010;2023-04-15T04:49:26;12.66;69.26
65396;HTU21D;52004;45.136;39.010;2023-04-15T04:51:53;12.70;69.19
65396;HTU21D;52004;45.136;39.010;2023-04-15T04:54:20;12.73;69.18
65396;HTU21D;52004;45.136;39.010;2023-04-15T04:56:48;12.77;69.22
65396;HTU21D;52004;45.136;39.010;2023-04-15T04:59:15;12.85;69.29
65396;HTU21D;52004;45.136;39.010;2023-04-15T05:01:42;12.93;69.29
65396;HTU21D;52004;45.136;39.010;2023-04-15T05:04:09;13.01;69.29
65396;HTU21D;52004;45.136;39.010;2023-04-15T05:06:36;13.09;69.32
65396;HTU21D;52004;45.136;39.010;2023-04-15T05:09:04;13.19;69.36
65396;HTU21D;52004;45.136;39.010;2023-04-15T05:11:31;13.26;69.45
65396;HTU21D;52004;45.136;39.010;2023-04-15T05:13:58;13.36;69.43
65396;HTU21D;52004;45.136;39.010;2023-04-15T05:16:28;13.45;69.37
65396;HTU21D;52004;45.136;39.010;2023-04-15T05:18:55;0.00;69.29
65396;HTU21D;52004;45.136;39.010;2023-04-15T05:21:22;13.55;69.27
65396;HTU21D;52004;45.136;39.010;2023-04-15T05:23:49;13.62;69.21
65396;HTU21D;52004;45.136;39.010;2023-04-15T05:26:16;13.68;69.22
65396;HTU21D;52004;45.136;39.010;2023-04-15T05:28:43;13.74;69.29
65396;HTU21D;52004;45.136;39.010;2023-04-15T05:31:10;13.81;69.29
65396;HTU21D;52004;45.136;39.010;2023-04-15T05:33:38;13.89;69.33
65396;HTU21D;52004;45.136;39.010;2023-04-15T05:36:06;13.95;69.36
65396;HTU21D;52004;45.136;39.010;2023-04-15T05:38:33;14.04;69.36
65396;HTU21D;52004;45.136;39.010;2023-04-15T05:41:00;14.14;69.36
65396;HTU21D;52004;45.136;39.010;2023-04-15T05:43:28;14.21;69.29
65396;HTU21D;52004;45.136;39.010;2023-04-15T05:45:56;14.28;69.22
65396;HTU21D;52004;45.136;39.010;2023-04-15T05:48:23;0.00;69.20
65396;HTU21D;52004;45.136;39.010;2023-04-15T05:50:50;14.42;69.22
65396;HTU21D;52004;45.136;39.010;2023-04-15T05:53:17;14.53;69.33
65396;HTU21D;52004;45.136;39.010;2023-04-15T05:55:44;14.64;69.37
65396;HTU21D;52004;45.136;39.010;2023-04-15T05:58:11;14.73;69.33
65396;HTU21D;52004;45.136;39.010;2023-04-15T06:00:38;14.83;69.27
65396;HTU21D;52004;45.136;39.010;2023-04-15T06:03:06;14.94;69.24
65396;HTU21D;52004;45.136;39.010;2023-04-15T06:05:33;15.01;69.23
65396;HTU21D;52004;45.136;39.010;2023-04-15T06:08:01;0.00;69.18
65396;HTU21D;52004;45.136;39.010;2023-04-15T06:10:29;15.18;69.17
65396;HTU21D;52004;45.136;39.010;2023-04-15T06:12:56;15.28;69.22
65396;HTU21D;52004;45.136;39.010;2023-04-15T06:15:23;15.37;69.07
65396;HTU21D;52004;45.136;39.010;2023-04-15T06:17:51;15.44;69.13
65396;HTU21D;52004;45.136;39.010;2023-04-15T06:20:18;15.55;69.15
65396;HTU21D;52004;45.136;39.010;2023-04-15T06:22:46;15.65;69.20
65396;HTU21D;52004;45.136;39.010;2023-04-15T06:25:13;15.73;68.98
65396;HTU21D;52004;45.136;39.010;2023-04-15T06:27:40;15.81;68.97
65396;HTU21D;52004;45.136;39.010;2023-04-15T06:30:07;15.89;69.00
65396;HTU21D;52004;45.136;39.010;2023-04-15T06:32:34;15.98;68.97
65396;HTU21D;52004;45.136;39.010;2023-04-15T06:35:02;16.07;68.95
65396;HTU21D;52004;45.136;39.010;2023-04-15T06:37:29;16.18;68.95
65396;HTU21D;52004;45.136;39.010;2023-04-15T06:39:57;16.26;68.79
65396;HTU21D;52004;45.136;39.010;2023-04-15T06:42:27;16.33;68.66
65396;HTU21D;52004;45.136;39.010;2023-04-15T06:44:55;16.39;68.64
65396;HTU21D;52004;45.136;39.010;2023-04-15T06:47:22;16.47;68.72
65396;HTU21D;52004;45.136;39.010;2023-04-15T06:49:49;16.56;68.68
65396;HTU21D;52004;45.136;39.010;2023-04-15T06:52:16;16.64;68.62
65396;HTU21D;52004;45.136;39.010;2023-04-15T06:54:44;16.72;68.61
65396;HTU21D;52004;45.136;39.010;2023-04-15T06:57:11;16.81;68.52
65396;HTU21D;52004;45.136;39.010;2023-04-15T06:59:38;16.88;68.47
65396;HTU21D;52004;45.136;39.010;2023-04-15T07:05:44;17.11;68.46
65396;HTU21D;52004;45.136;39.010;2023-04-15T07:08:11;17.22;68.55
65396;HTU21D;52004;45.136;39.010;2023-04-15T07:10:38;17.33;68.31
65396;HTU21D;52004;45.136;39.010;2023-04-15T07:13:05;17.39;68.26
65396;HTU21D;52004;45.136;39.010;2023-04-15T07:15:34;17.47;68.15
65396;HTU21D;52004;45.136;39.010;2023-04-15T07:18:01;17.54;68.14
65396;HTU21D;52004;45.136;39.010;2023-04-15T07:20:29;17.63;68.04
65396;HTU21D;52004;45.136;39.010;2023-04-15T07:22:56;17.68;67.94
65396;HTU21D;52004;45.136;39.010;2023-04-15T07:25:23;17.70;67.66
65396;HTU21D;52004;45.136;39.010;2023-04-15T07:27:51;17.73;67.77
65396;HTU21D;52004;45.136;39.010;2023-04-15T07:30:18;17.79;67.84
65396;HTU21D;52004;45.136;39.010;2023-04-15T07:32:45;17.87;67.78
65396;HTU21D;52004;45.136;39.010;2023-04-15T07:35:12;0.00;67.56
65396;HTU21D;52004;45.136;39.010;2023-04-15T07:37:40;17.98;67.60
65396;HTU21D;52004;45.136;39.010;2023-04-15T07:40:09;18.05;67.52
65396;HTU21D;52004;45.136;39.010;2023-04-15T07:42:40;18.10;67.63
65396;HTU21D;52004;45.136;39.010;2023-04-15T07:45:08;18.19;67.59
65396;HTU21D;52004;45.136;39.010;2023-04-15T07:47:35;0.00;67.44
65396;HTU21D;52004;45.136;39.010;2023-04-15T07:50:02;18.36;67.34
65396;HTU21D;52004;45.136;39.010;2023-04-15T07:52:30;18.43;67.38
65396;HTU21D;52004;45.136;39.010;2023-04-15T07:54:58;18.51;67.26
65396;HTU21D;52004;45.136;39.010;2023-04-15T07:57:25;18.57;67.29
65396;HTU21D;52004;45.136;39.010;2023-04-15T07:59:52;18.67;67.23
65396;HTU21D;52004;45.136;39.010;2023-04-15T08:02:19;18.74;67.17
65396;HTU21D;52004;45.136;39.010;2023-04-15T08:04:46;18.81;67.09
65396;HTU21D;52004;45.136;39.010;2023-04-15T08:07:14;0.00;67.06
65396;HTU21D;52004;45.136;39.010;2023-04-15T08:09:41;18.99;67.01
65396;HTU21D;52004;45.136;39.010;2023-04-15T08:12:08;0.00;66.87
65396;HTU21D;52004;45.136;39.010;2023-04-15T08:14:39;19.12;66.80
65396;HTU21D;52004;45.136;39.010;2023-04-15T08:17:06;19.16;66.64
65396;HTU21D;52004;45.136;39.010;2023-04-15T08:19:33;19.22;66.71
65396;HTU21D;52004;45.136;39.010;2023-04-15T08:22:00;0.00;66.66
65396;HTU21D;52004;45.136;39.010;2023-04-15T08:24:28;19.33;66.69
65396;HTU21D;52004;45.136;39.010;2023-04-15T08:26:56;19.41;66.53
65396;HTU21D;52004;45.136;39.010;2023-04-15T08:29:23;19.50;66.57
65396;HTU21D;52004;45.136;39.010;2023-04-15T08:31:50;19.58;66.51
65396;HTU21D;52004;45.136;39.010;2023-04-15T08:34:17;19.66;66.46
65396;HTU21D;52004;45.136;39.010;2023-04-15T08:36:44;19.74;66.44
65396;HTU21D;52004;45.136;39.010;2023-04-15T08:39:12;19.80;66.20
65396;HTU21D;52004;45.136;39.010;2023-04-15T08:41:40;19.83;66.07
65396;HTU21D;52004;45.136;39.010;2023-04-15T08:44:11;19.86;66.04
65396;HTU21D;52004;45.136;39.010;2023-04-15T08:46:38;19.90;66.01
65396;HTU21D;52004;45.136;39.010;2023-04-15T08:49:05;19.97;66.01
65396;HTU21D;52004;45.136;39.010;2023-04-15T08:51:34;20.04;65.95
65396;HTU21D;52004;45.136;39.010;2023-04-15T08:54:02;20.12;65.92
65396;HTU21D;52004;45.136;39.010;2023-04-15T08:56:30;20.20;66.01
65396;HTU21D;52004;45.136;39.010;2023-04-15T08:58:58;20.32;65.94
65396;HTU21D;52004;45.136;39.010;2023-04-15T09:01:26;20.40;65.75
65396;HTU21D;52004;45.136;39.010;2023-04-15T09:03:53;20.45;65.72
65396;HTU21D;52004;45.136;39.010;2023-04-15T09:06:22;20.55;65.62
65396;HTU21D;52004;45.136;39.010;2023-04-15T09:08:49;20.58;65.53
65396;HTU21D;52004;45.136;39.010;2023-04-15T09:11:17;20.63;65.53
65396;HTU21D;52004;45.136;39.010;2023-04-15T09:13:45;20.69;65.42
65396;HTU21D;52004;45.136;39.010;2023-04-15T09:16:12;20.72;65.61
65396;HTU21D;52004;45.136;39.010;2023-04-15T09:18:40;20.83;65.70
65396;HTU21D;52004;45.136;39.010;2023-04-15T09:21:08;20.95;65.69
65396;HTU21D;52004;45.136;39.010;2023-04-15T09:23:37;21.08;65.58
65396;HTU21D;52004;45.136;39.010;2023-04-15T09:26:05;21.20;65.62
65396;HTU21D;52004;45.136;39.010;2023-04-15T09:28:32;21.35;65.63
65396;HTU21D;52004;45.136;39.010;2023-04-15T09:31:01;21.47;65.39
65396;HTU21D;52004;45.136;39.010;2023-04-15T09:33:28;21.54;65.25
65396;HTU21D;52004;45.136;39.010;2023-04-15T09:35:56;21.59;65.08
65396;HTU21D;52004;45.136;39.010;2023-04-15T09:38:23;21.62;65.12
65396;HTU21D;52004;45.136;39.010;2023-04-15T09:40:51;21.66;65.06
65396;HTU21D;52004;45.136;39.010;2023-04-15T09:43:18;21.74;65.12
65396;HTU21D;52004;45.136;39.010;2023-04-15T09:45:50;21.81;65.07
65396;HTU21D;52004;45.136;39.010;2023-04-15T09:50:44;21.95;64.96
65396;HTU21D;52004;45.136;39.010;2023-04-15T09:53:14;21.98;64.72
65396;HTU21D;52004;45.136;39.010;2023-04-15T09:55:52;21.93;64.56
65396;HTU21D;52004;45.136;39.010;2023-04-15T09:58:21;21.92;64.73
65396;HTU21D;52004;45.136;39.010;2023-04-15T10:00:50;21.97;64.87
65396;HTU21D;52004;45.136;39.010;2023-04-15T10:03:21;22.07;64.79
65396;HTU21D;52004;45.136;39.010;2023-04-15T10:05:49;22.12;64.61
65396;HTU21D;52004;45.136;39.010;2023-04-15T10:08:17;22.17;64.61
65396;HTU21D;52004;45.136;39.010;2023-04-15T10:10:45;22.25;64.64
65396;HTU21D;52004;45.136;39.010;2023-04-15T10:13:14;22.33;64.56
65396;HTU21D;52004;45.136;39.010;2023-04-15T10:15:43;22.38;64.36
65396;HTU21D;52004;45.136;39.010;2023-04-15T10:18:11;22.39;64.11
65396;HTU21D;52004;45.136;39.010;2023-04-15T10:20:39;22.38;64.24
65396;HTU21D;52004;45.136;39.010;2023-04-15T10:23:06;22.41;64.27
65396;HTU21D;52004;45.136;39.010;2023-04-15T10:25:34;22.49;64.31
65396;HTU21D;52004;45.136;39.010;2023-04-15T10:28:02;22.60;64.24
65396;HTU21D;52004;45.136;39.010;2023-04-15T10:30:30;22.63;64.11
65396;HTU21D;52004;45.136;39.010;2023-04-15T10:32:59;22.65;64.03
65396;HTU21D;52004;45.136;39.010;2023-04-15T10:35:27;22.68;63.97
65396;HTU21D;52004;45.136;39.010;2023-04-15T10:37:56;22.75;63.98
65396;HTU21D;52004;45.136;39.010;2023-04-15T10:40:24;22.77;63.82
65396;HTU21D;52004;45.136;39.010;2023-04-15T10:42:53;22.76;63.76
65396;HTU21D;52004;45.136;39.010;2023-04-15T10:45:21;22.72;63.53
65396;HTU21D;52004;45.136;39.010;2023-04-15T10:47:53;22.58;63.27
65396;HTU21D;52004;45.136;39.010;2023-04-15T10:50:20;22.34;63.11
65396;HTU21D;52004;45.136;39.010;2023-04-15T10:52:49;22.14;63.40
65396;HTU21D;52004;45.136;39.010;2023-04-15T10:55:21;22.09;63.66
65396;HTU21D;52004;45.136;39.010;2023-04-15T10:57:52;22.13;63.75
65396;HTU21D;52004;45.136;39.010;2023-04-15T11:00:20;22.18;63.76
65396;HTU21D;52004;45.136;39.010;2023-04-15T11:02:57;22.20;63.54
65396;HTU21D;52004;45.136;39.010;2023-04-15T11:08:07;22.28;63.69
65396;HTU21D;52004;45.136;39.010;2023-04-15T11:13:02;22.48;63.60
65396;HTU21D;52004;45.136;39.010;2023-04-15T11:15:34;22.50;63.35
65396;HTU21D;52004;45.136;39.010;2023-04-15T11:20:31;22.48;63.23
65396;HTU21D;52004;45.136;39.010;2023-04-15T11:22:59;22.40;63.09
65396;HTU21D;52004;45.136;39.010;2023-04-15T11:25:27;22.31;63.11
65396;HTU21D;52004;45.136;39.010;2023-04-15T11:27:54;22.22;63.04
65396;HTU21D;52004;45.136;39.010;2023-04-15T11:32:49;21.97;63.01
65396;HTU21D;52004;45.136;39.010;2023-04-15T11:35:16;21.90;63.12
65396;HTU21D;52004;45.136;39.010;2023-04-15T11:37:44;21.82;63.21
65396;HTU21D;52004;45.136;39.010;2023-04-15T11:40:12;21.80;63.24
65396;HTU21D;52004;45.136;39.010;2023-04-15T11:42:41;21.78;63.15
65396;HTU21D;52004;45.136;39.010;2023-04-15T11:45:08;21.77;63.17
65396;HTU21D;52004;45.136;39.010;2023-04-15T11:47:36;21.73;63.04
65396;HTU21D;52004;45.136;39.010;2023-04-15T11:50:21;21.69;63.17
65396;HTU21D;52004;45.136;39.010;2023-04-15T11:55:19;21.72;63.14
65396;HTU21D;52004;45.136;39.010;2023-04-15T11:57:45;21.73;63.14
65396;HTU21D;52004;45.136;39.010;2023-04-15T12:00:11;21.75;63.08
65396;HTU21D;52004;45.136;39.010;2023-04-15T12:02:37;21.75;63.04
65396;HTU21D;52004;45.136;39.010;2023-04-15T12:05:04;21.69;62.95
65396;HTU21D;52004;45.136;39.010;2023-04-15T12:07:30;21.68;63.10
65396;HTU21D;52004;45.136;39.010;2023-04-15T12:09:56;21.69;63.05
65396;HTU21D;52004;45.136;39.010;2023-04-15T12:12:31;21.67;62.96
65396;HTU21D;52004;45.136;39.010;2023-04-15T12:14:57;21.60;62.89
65396;HTU21D;52004;45.136;39.010;2023-04-15T12:17:24;21.53;62.79
65396;HTU21D;52004;45.136;39.010;2023-04-15T12:19:54;21.40;62.57
65396;HTU21D;52004;45.136;39.010;2023-04-15T12:22:21;21.27;62.70
65396;HTU21D;52004;45.136;39.010;2023-04-15T12:24:47;21.16;62.90
65396;HTU21D;52004;45.136;39.010;2023-04-15T12:27:18;21.10;62.60
65396;HTU21D;52004;45.136;39.010;2023-04-15T12:29:45;20.93;62.68
65396;HTU21D;52004;45.136;39.010;2023-04-15T12:34:38;20.65;62.91
65396;HTU21D;52004;45.136;39.010;2023-04-15T12:37:05;0.00;63.09
65396;HTU21D;52004;45.136;39.010;2023-04-15T12:39:35;20.44;63.18
65396;HTU21D;52004;45.136;39.010;2023-04-15T12:42:02;20.39;63.10
65396;HTU21D;52004;45.136;39.010;2023-04-15T12:44:28;20.34;63.23
65396;HTU21D;52004;45.136;39.010;2023-04-15T12:46:54;20.29;63.17
65396;HTU21D;52004;45.136;39.010;2023-04-15T12:49:21;20.25;63.28
65396;HTU21D;52004;45.136;39.010;2023-04-15T12:51:47;20.26;63.15
65396;HTU21D;52004;45.136;39.010;2023-04-15T12:54:14;20.17;63.09
65396;HTU21D;52004;45.136;39.010;2023-04-15T12:56:41;20.12;63.05
65396;HTU21D;52004;45.136;39.010;2023-04-15T12:59:07;20.06;63.11
65396;HTU21D;52004;45.136;39.010;2023-04-15T13:01:33;20.06;63.30
65396;HTU21D;52004;45.136;39.010;2023-04-15T13:03:59;20.13;63.21
65396;HTU21D;52004;45.136;39.010;2023-04-15T13:06:24;20.12;63.11
65396;HTU21D;52004;45.136;39.010;2023-04-15T13:08:50;20.13;63.16
65396;HTU21D;52004;45.136;39.010;2023-04-15T13:11:22;20.07;62.98
65396;HTU21D;52004;45.136;39.010;2023-04-15T13:13:47;20.01;62.99
65396;HTU21D;52004;45.136;39.010;2023-04-15T13:16:13;19.97;63.04
65396;HTU21D;52004;45.136;39.010;2023-04-15T13:18:40;19.90;62.95
65396;HTU21D;52004;45.136;39.010;2023-04-15T13:21:06;19.83;63.20
65396;HTU21D;52004;45.136;39.010;2023-04-15T13:23:32;19.81;63.15
65396;HTU21D;52004;45.136;39.010;2023-04-15T13:25:58;19.77;63.16
65396;HTU21D;52004;45.136;39.010;2023-04-15T13:28:24;19.68;63.07
65396;HTU21D;52004;45.136;39.010;2023-04-15T13:30:50;19.63;63.26
65396;HTU21D;52004;45.136;39.010;2023-04-15T13:33:16;19.59;63.12
65396;HTU21D;52004;45.136;39.010;2023-04-15T13:35:42;19.53;63.15
65396;HTU21D;52004;45.136;39.010;2023-04-15T13:38:08;19.44;63.08
65396;HTU21D;52004;45.136;39.010;2023-04-15T13:40:34;19.31;63.28
65396;HTU21D;52004;45.136;39.010;2023-04-15T13:43:00;19.21;63.32
65396;HTU21D;52004;45.136;39.010;2023-04-15T13:45:26;19.15;63.40
65396;HTU21D;52004;45.136;39.010;2023-04-15T13:47:52;19.07;63.44
65396;HTU21D;52004;45.136;39.010;2023-04-15T13:50:19;18.97;63.46
65396;HTU21D;52004;45.136;39.010;2023-04-15T13:52:45;18.89;63.48
65396;HTU21D;52004;45.136;39.010;2023-04-15T13:55:11;18.85;63.54
65396;HTU21D;52004;45.136;39.010;2023-04-15T13:57:37;18.82;63.56
65396;HTU21D;52004;45.136;39.010;2023-04-15T14:00:03;18.76;63.53
65396;HTU21D;52004;45.136;39.010;2023-04-15T14:02:32;18.71;63.62
65396;HTU21D;52004;45.136;39.010;2023-04-15T14:04:58;18.71;63.66
65396;HTU21D;52004;45.136;39.010;2023-04-15T14:07:23;18.70;63.56
65396;HTU21D;52004;45.136;39.010;2023-04-15T14:09:49;18.67;63.40
65396;HTU21D;52004;45.136;39.010;2023-04-15T14:12:15;18.58;63.56
65396;HTU21D;52004;45.136;39.010;2023-04-15T14:14:41;18.54;63.60
65396;HTU21D;52004;45.136;39.010;2023-04-15T14:17:07;18.50;63.60
65396;HTU21D;52004;45.136;39.010;2023-04-15T14:19:33;18.41;63.56
65396;HTU21D;52004;45.136;39.010;2023-04-15T14:21:59;18.30;63.62
65396;HTU21D;52004;45.136;39.010;2023-04-15T14:24:25;18.18;63.84
65396;HTU21D;52004;45.136;39.010;2023-04-15T14:26:52;18.13;63.87
65396;HTU21D;52004;45.136;39.010;2023-04-15T14:29:18;18.06;63.85
65396;HTU21D;52004;45.136;39.010;2023-04-15T14:31:43;17.91;64.08
65396;HTU21D;52004;45.136;39.010;2023-04-15T14:34:10;17.89;64.28
65396;HTU21D;52004;45.136;39.010;2023-04-15T14:36:36;17.82;64.36
65396;HTU21D;52004;45.136;39.010;2023-04-15T14:39:02;17.78;64.47
65396;HTU21D;52004;45.136;39.010;2023-04-15T14:41:28;17.74;64.60
65396;HTU21D;52004;45.136;39.010;2023-04-15T14:43:54;17.67;64.62
65396;HTU21D;52004;45.136;39.010;2023-04-15T14:46:21;17.59;64.71
65396;HTU21D;52004;45.136;39.010;2023-04-15T14:48:47;17.52;64.76
65396;HTU21D;52004;45.136;39.010;2023-04-15T14:51:14;17.44;64.97
65396;HTU21D;52004;45.136;39.010;2023-04-15T14:53:40;17.38;65.01
65396;HTU21D;52004;45.136;39.010;2023-04-15T14:56:06;17.32;65.17
65396;HTU21D;52004;45.136;39.010;2023-04-15T14:58:32;17.25;65.33
65396;HTU21D;52004;45.136;39.010;2023-04-15T15:00:58;17.18;65.42
65396;HTU21D;52004;45.136;39.010;2023-04-15T15:03:24;17.10;65.53
65396;HTU21D;52004;45.136;39.010;2023-04-15T15:05:50;17.03;65.49
65396;HTU21D;52004;45.136;39.010;2023-04-15T15:08:16;16.90;65.62
65396;HTU21D;52004;45.136;39.010;2023-04-15T15:10:42;16.79;65.59
65396;HTU21D;52004;45.136;39.010;2023-04-15T15:13:08;16.70;65.63
65396;HTU21D;52004;45.136;39.010;2023-04-15T15:15:35;16.55;65.61
65396;HTU21D;52004;45.136;39.010;2023-04-15T15:18:01;16.44;65.62
65396;HTU21D;52004;45.136;39.010;2023-04-15T15:20:27;16.33;65.62
65396;HTU21D;52004;45.136;39.010;2023-04-15T15:22:54;16.29;65.53
65396;HTU21D;52004;45.136;39.010;2023-04-15T15:25:20;16.20;65.36